Amherst, Canada
Current Conditions -  °F | °C
As of 9:00 AM on Thursday 30 Oct 2014 (Local Time) from CYQM Reporting Station
Few Clouds Few Clouds  
Wind Chill:   Ceiling: Unl
Heat Index:   Visibility: 15mi
Dew Point:   Wind: 10mph
Humidity: 87%   Direction: 230°SW
Pressure: 29.77"   Gusts: NA
Location:  45.85°N, 64.27°W
Report Text: CYQM 301200Z 23009KT 15SM FEW045 FEW120 07/05 A2977 RMK SC1AC1 SC TR SLP082
Loading
Personal Weather Stations






























Interactive Weather Map
Tropical Storm Tracking
New forecast layout! Learn more

10-Day Weather Forecast

Advertisements
Track Severe Weather on mobile